createdAt,value
2023-03-06T00:01:10.096Z,9.1
2023-03-06T00:03:38.356Z,9.9
2023-03-06T00:06:06.607Z,10
2023-03-06T00:11:03.121Z,10.2
2023-03-06T00:13:31.377Z,10.6
2023-03-06T00:15:59.643Z,12.1
2023-03-06T00:18:27.893Z,10.3
2023-03-06T00:20:56.157Z,11.4
2023-03-06T00:22:10.885Z,11.1
2023-03-06T00:23:24.427Z,11.6
2023-03-06T00:25:52.689Z,10.6
2023-03-06T00:28:20.948Z,12.6
2023-03-06T00:30:49.205Z,11.8
2023-03-06T00:33:17.462Z,12.3
2023-03-06T00:35:45.717Z,11.5
2023-03-06T00:38:13.971Z,13.3
2023-03-06T00:43:10.491Z,12.2
2023-03-06T00:45:38.742Z,10.7
2023-03-06T00:46:53.475Z,12.3
2023-03-06T00:48:07.017Z,11.1
2023-03-06T00:50:35.273Z,12.1
2023-03-06T00:53:03.533Z,12.3
2023-03-06T00:55:31.790Z,11.6
2023-03-06T00:58:00.048Z,11.2
2023-03-06T01:00:28.306Z,10.5
2023-03-06T01:02:56.564Z,9.7
2023-03-06T01:05:24.819Z,11.2
2023-03-06T01:07:53.080Z,12.9
2023-03-06T01:10:21.335Z,11.9
2023-03-06T01:12:49.596Z,12.7
2023-03-06T01:15:17.850Z,14.6
2023-03-06T01:17:46.113Z,15.1
2023-03-06T01:20:14.366Z,15.1
2023-03-06T01:22:42.620Z,15.6
2023-03-06T01:25:10.882Z,17.1
2023-03-06T01:27:39.140Z,16.4
2023-03-06T01:30:07.398Z,16
2023-03-06T01:32:35.655Z,16.5
2023-03-06T01:35:03.912Z,14.6
2023-03-06T01:36:18.662Z,14.8
2023-03-06T01:37:32.206Z,13.2
2023-03-06T01:40:00.463Z,14.1
2023-03-06T01:44:56.973Z,12.9
2023-03-06T01:47:25.232Z,12.7
2023-03-06T01:49:53.497Z,12.4
2023-03-06T01:52:21.746Z,11.4
2023-03-06T01:54:50.005Z,12.2
2023-03-06T01:57:18.269Z,12.1
2023-03-06T01:59:46.525Z,13
2023-03-06T02:01:01.256Z,12.1
2023-03-06T02:02:14.801Z,15.9
2023-03-06T02:04:43.059Z,13.8
2023-03-06T02:07:11.317Z,14.4
2023-03-06T02:09:39.575Z,15.1
2023-03-06T02:12:07.827Z,16
2023-03-06T02:17:04.343Z,18.5
2023-03-06T02:19:32.605Z,19.2
2023-03-06T02:22:00.858Z,23.1
2023-03-06T02:24:29.114Z,23.7
2023-03-06T02:25:43.852Z,23.5
2023-03-06T02:26:57.394Z,24.2
2023-03-06T02:29:25.646Z,23.8
2023-03-06T02:31:53.908Z,25.4
2023-03-06T02:34:22.161Z,27.7
2023-03-06T02:36:50.421Z,29
2023-03-06T02:39:18.677Z,29.6
2023-03-06T02:41:46.939Z,30
2023-03-06T02:44:15.194Z,30
2023-03-06T02:49:11.704Z,32
2023-03-06T02:50:26.438Z,30.7
2023-03-06T02:51:39.988Z,30.9
2023-03-06T02:54:08.240Z,31.5
2023-03-06T02:56:36.505Z,32
2023-03-06T02:59:04.757Z,31.6
2023-03-06T03:01:33.014Z,33.2
2023-03-06T03:04:01.270Z,32.1
2023-03-06T03:06:29.530Z,28.9
2023-03-06T03:08:57.791Z,28.9
2023-03-06T03:11:26.044Z,29.9
2023-03-06T03:13:54.302Z,27.2
2023-03-06T03:15:09.034Z,27
2023-03-06T03:18:51.068Z,26.9
2023-03-06T03:21:19.325Z,27.6
2023-03-06T03:23:47.582Z,28
2023-03-06T03:26:15.839Z,26.8
2023-03-06T03:28:44.101Z,25.4
2023-03-06T03:31:12.358Z,25
2023-03-06T03:33:40.610Z,23.2
2023-03-06T03:36:08.867Z,24.6
2023-03-06T03:38:37.130Z,24.6
2023-03-06T03:39:51.859Z,23.5
2023-03-06T03:41:05.404Z,22
2023-03-06T03:43:33.665Z,21.1
2023-03-06T03:46:01.917Z,22.7
2023-03-06T03:50:58.439Z,21.7
2023-03-06T03:53:26.699Z,21.5
2023-03-06T03:55:54.956Z,22.1
2023-03-06T03:58:23.207Z,20.7
2023-03-06T04:00:51.471Z,19.8
2023-03-06T04:03:19.721Z,20.7
2023-03-06T04:04:34.461Z,20
2023-03-06T04:05:48.003Z,17.7
2023-03-06T04:08:16.261Z,17.7
2023-03-06T04:10:44.524Z,17.5
2023-03-06T04:13:12.772Z,17.6
2023-03-06T04:15:41.032Z,17
2023-03-06T04:18:09.290Z,18.6
2023-03-06T04:23:05.804Z,15.9
2023-03-06T04:25:34.069Z,15.7
2023-03-06T04:28:02.322Z,15.2
2023-03-06T04:29:17.059Z,13.2
2023-03-06T04:30:30.598Z,13.2
2023-03-06T04:32:58.859Z,13.5
2023-03-06T04:35:27.113Z,14.1
2023-03-06T04:37:55.371Z,12.7
2023-03-06T04:40:23.631Z,13.1
2023-03-06T04:42:51.890Z,11.2
2023-03-06T04:45:20.149Z,11.1
2023-03-06T04:47:48.401Z,11
2023-03-06T04:50:16.658Z,9.6
2023-03-06T04:53:59.655Z,9.4
2023-03-06T04:55:13.192Z,8.2
2023-03-06T04:57:41.454Z,8.6
2023-03-06T05:00:09.713Z,9.2
2023-03-06T05:02:37.964Z,9.3
2023-03-06T05:05:06.225Z,9.1
2023-03-06T05:07:34.483Z,9
2023-03-06T05:10:02.738Z,8.3
2023-03-06T05:12:31.004Z,8.8
2023-03-06T05:14:59.253Z,8.9
2023-03-06T05:17:27.513Z,8.5
2023-03-06T05:18:42.252Z,8
2023-03-06T05:19:55.793Z,8.4
2023-03-06T05:24:52.307Z,8.8
2023-03-06T05:27:20.563Z,9.4
2023-03-06T05:29:48.829Z,8.4
2023-03-06T05:32:17.086Z,8.3
2023-03-06T05:34:45.340Z,7.8
2023-03-06T05:37:13.597Z,9.6
2023-03-06T05:39:41.853Z,9
2023-03-06T05:42:10.116Z,8.7
2023-03-06T05:43:24.842Z,9.1
2023-03-06T05:44:38.392Z,8.8
2023-03-06T05:47:06.647Z,9.6
2023-03-06T05:49:34.903Z,10.1
2023-03-06T05:52:03.163Z,11
2023-03-06T05:56:59.673Z,9.8
2023-03-06T05:59:27.939Z,10
2023-03-06T06:04:24.455Z,9.2
2023-03-06T06:06:52.711Z,10.6
2023-03-06T06:08:07.447Z,11.9
2023-03-06T06:09:20.987Z,12.2
2023-03-06T06:11:49.242Z,11.9
2023-03-06T06:14:17.500Z,11.9
2023-03-06T06:16:45.758Z,12.7
2023-03-06T06:19:14.021Z,11.9
2023-03-06T06:21:42.280Z,11.7
2023-03-06T06:24:10.538Z,13.3
2023-03-06T06:29:07.044Z,13.9
2023-03-06T06:31:35.303Z,15.2
2023-03-06T06:32:50.041Z,15.1
2023-03-06T06:34:03.579Z,13.8
2023-03-06T06:36:31.839Z,14.2
2023-03-06T06:39:00.099Z,13.8
2023-03-06T06:41:28.359Z,14.6
2023-03-06T06:43:56.609Z,14
2023-03-06T06:46:24.872Z,15.2
2023-03-06T06:48:53.128Z,16.1
2023-03-06T06:51:21.382Z,17
2023-03-06T06:53:49.640Z,17.8
2023-03-06T06:56:17.898Z,17.6
2023-03-06T06:58:46.160Z,17.2
2023-03-06T07:01:14.415Z,17
2023-03-06T07:03:42.674Z,17.4
2023-03-06T07:06:10.934Z,17.7
2023-03-06T07:08:39.192Z,15.9
2023-03-06T07:11:07.450Z,17.6
2023-03-06T07:13:35.706Z,15.5
2023-03-06T07:16:03.969Z,16.6
2023-03-06T07:18:32.222Z,15.7
2023-03-06T07:21:00.477Z,14.5
2023-03-06T07:22:15.230Z,15.2
2023-03-06T07:23:28.775Z,15.9
2023-03-06T07:25:57.033Z,15.9
2023-03-06T07:30:53.551Z,14.5
2023-03-06T07:33:21.810Z,14.3
2023-03-06T07:35:50.066Z,13.4
2023-03-06T07:38:18.317Z,12
2023-03-06T07:40:46.583Z,12.4
2023-03-06T07:43:14.836Z,12
2023-03-06T07:45:43.091Z,12.1
2023-03-06T07:46:57.831Z,12.8
2023-03-06T07:48:11.370Z,11.8
2023-03-06T07:50:39.627Z,12
2023-03-06T07:53:07.883Z,11.9
2023-03-06T07:55:36.148Z,12
2023-03-06T07:58:04.401Z,11.3
2023-03-06T08:03:00.913Z,12.9
2023-03-06T08:05:29.176Z,11.2
2023-03-06T08:07:57.436Z,11.4
2023-03-06T08:10:25.694Z,10.7
2023-03-06T08:11:40.426Z,11.6
2023-03-06T08:12:53.967Z,11
2023-03-06T08:15:22.223Z,12.3
2023-03-06T08:17:50.488Z,11.8
2023-03-06T08:20:18.737Z,12.1
2023-03-06T08:22:46.995Z,11.1
2023-03-06T08:25:15.257Z,10.9
2023-03-06T08:30:11.773Z,10.6
2023-03-06T08:35:08.287Z,11.6
2023-03-06T08:36:23.018Z,11.4
2023-03-06T08:37:36.560Z,11.3
2023-03-06T08:40:04.824Z,10.6
2023-03-06T08:42:33.082Z,10.3
2023-03-06T08:45:01.339Z,10.7
2023-03-06T08:47:29.643Z,10.9
2023-03-06T08:49:57.852Z,10.9
2023-03-06T08:52:26.108Z,10.2
2023-03-06T08:54:54.363Z,11.7
2023-03-06T08:57:22.627Z,11
2023-03-06T08:59:50.883Z,11.6
2023-03-06T09:01:05.608Z,10.8
2023-03-06T09:04:47.641Z,12.9
2023-03-06T09:07:15.907Z,12.4
2023-03-06T09:09:44.165Z,11.8
2023-03-06T09:12:12.419Z,11
2023-03-06T09:14:40.675Z,10.8
2023-03-06T09:17:08.933Z,11.3
2023-03-06T09:19:37.190Z,10.5
2023-03-06T09:22:05.445Z,11.2
2023-03-06T09:24:33.703Z,12.1
2023-03-06T09:25:48.437Z,12.7
2023-03-06T09:27:01.979Z,11.9
2023-03-06T09:29:30.233Z,12.2
2023-03-06T09:31:58.490Z,12.9
2023-03-06T09:36:55.012Z,12.2
2023-03-06T09:39:23.260Z,12.8
2023-03-06T09:41:51.524Z,11.3
2023-03-06T09:44:19.776Z,12.1
2023-03-06T09:46:48.040Z,12
2023-03-06T09:49:16.289Z,11.7
2023-03-06T09:50:31.029Z,10.8
2023-03-06T09:51:44.567Z,11
2023-03-06T09:54:12.822Z,10.9
2023-03-06T09:56:41.082Z,11.1
2023-03-06T09:59:09.342Z,10.9
2023-03-06T10:01:37.601Z,10
2023-03-06T10:04:05.853Z,10.3
2023-03-06T10:09:02.369Z,10.3
2023-03-06T10:11:30.639Z,9.7
2023-03-06T10:13:58.890Z,9.1
2023-03-06T10:15:13.623Z,9
2023-03-06T10:16:27.166Z,8.9
2023-03-06T10:18:55.428Z,9.5
2023-03-06T10:21:23.682Z,9.6
2023-03-06T10:23:51.935Z,8.1
2023-03-06T10:26:20.194Z,8
2023-03-06T10:28:48.454Z,8
2023-03-06T10:31:16.711Z,9
2023-03-06T10:33:44.960Z,8.8
2023-03-06T10:36:13.221Z,9
2023-03-06T10:39:56.218Z,8.8
2023-03-06T10:41:09.756Z,8
2023-03-06T10:43:38.016Z,7.3
2023-03-06T10:46:06.269Z,7.8
2023-03-06T10:48:34.524Z,8
2023-03-06T10:51:02.784Z,7.4
2023-03-06T10:53:31.042Z,6.1
2023-03-06T10:55:59.296Z,5.7
2023-03-06T10:58:27.560Z,5
2023-03-06T11:00:55.815Z,5.3
2023-03-06T11:03:24.066Z,5.1
2023-03-06T11:04:38.805Z,4.1
2023-03-06T11:05:52.344Z,4.3
2023-03-06T11:10:48.859Z,4.1
2023-03-06T11:13:17.114Z,4.3
2023-03-06T11:15:45.369Z,3.5
2023-03-06T11:18:13.634Z,3.4
2023-03-06T11:20:41.882Z,4.1
2023-03-06T11:23:10.138Z,4.5
2023-03-06T11:25:38.398Z,4.4
2023-03-06T11:28:06.653Z,4
2023-03-06T11:29:21.391Z,4.3
2023-03-06T11:30:34.938Z,4.1
2023-03-06T11:33:03.186Z,4
2023-03-06T11:35:31.446Z,4.5
2023-03-06T11:37:59.702Z,3.4
2023-03-06T11:42:56.212Z,3.9
2023-03-06T11:45:24.469Z,4.1
2023-03-06T11:47:52.728Z,2.6
2023-03-06T11:50:20.990Z,2.9
2023-03-06T11:52:49.246Z,3
2023-03-06T11:54:03.973Z,2.7
2023-03-06T11:55:17.525Z,2.8
2023-03-06T11:57:45.775Z,2.4
2023-03-06T12:00:14.034Z,2.9
2023-03-06T12:02:42.290Z,2.4
2023-03-06T12:05:10.554Z,2.3
2023-03-06T12:07:38.808Z,2
2023-03-06T12:10:07.060Z,1.5
2023-03-06T12:15:03.574Z,1.6
2023-03-06T12:17:31.836Z,1.3
2023-03-06T12:18:46.566Z,1.2
2023-03-06T12:20:00.112Z,1.1
2023-03-06T12:22:28.372Z,1.4
2023-03-06T12:24:56.628Z,1.2
2023-03-06T12:27:24.880Z,1
2023-03-06T12:37:17.905Z,1.1
2023-03-06T12:39:46.163Z,1
2023-03-06T12:42:14.425Z,1.5
2023-03-06T12:44:42.684Z,0.9
2023-03-06T12:47:10.941Z,1.1
2023-03-06T12:49:39.192Z,1.4
2023-03-06T12:52:07.446Z,1
2023-03-06T12:54:35.709Z,1
2023-03-06T12:57:03.959Z,1.3
2023-03-06T12:59:32.217Z,1.1
2023-03-06T13:02:00.474Z,1
2023-03-06T13:04:28.737Z,1.2
2023-03-06T13:06:56.990Z,1.1
2023-03-06T13:08:11.743Z,1.2
2023-03-06T13:09:25.284Z,1.3
2023-03-06T13:11:53.542Z,1.8
2023-03-06T13:16:50.053Z,1.2
2023-03-06T13:19:18.310Z,1.2
2023-03-06T13:21:46.571Z,1.3
2023-03-06T13:24:14.822Z,1.1
2023-03-06T13:26:43.081Z,1.3
2023-03-06T13:29:11.337Z,1.2
2023-03-06T13:31:39.597Z,1.4
2023-03-06T13:32:54.327Z,1.2
2023-03-06T13:34:07.879Z,0.9
2023-03-06T13:36:36.135Z,1
2023-03-06T13:39:04.392Z,0.8
2023-03-06T13:41:32.640Z,1
2023-03-06T13:44:00.902Z,1
2023-03-06T13:48:57.417Z,1.2
2023-03-06T13:51:25.672Z,1.2
2023-03-06T13:53:53.929Z,0.7
2023-03-06T13:56:22.189Z,1.1
2023-03-06T13:57:36.922Z,0.8
2023-03-06T13:58:50.464Z,1.3
2023-03-06T14:01:18.724Z,0.9
2023-03-06T14:03:46.982Z,0.9
2023-03-06T14:06:15.234Z,1.1
2023-03-06T14:08:43.492Z,0.8
2023-03-06T14:11:11.751Z,0.9
2023-03-06T14:13:40.001Z,0.8
2023-03-06T14:16:08.262Z,0.8
2023-03-06T14:21:04.776Z,0.7
2023-03-06T14:22:19.510Z,0.9
2023-03-06T14:23:33.050Z,0.8
2023-03-06T14:26:01.305Z,0.9
2023-03-06T14:28:29.569Z,1.1
2023-03-06T14:30:57.825Z,1.1
2023-03-06T14:33:26.074Z,0.9
2023-03-06T14:35:54.335Z,0.8
2023-03-06T14:38:22.587Z,0.6
2023-03-06T14:40:50.851Z,0.8
2023-03-06T14:43:19.107Z,1
2023-03-06T14:45:47.363Z,1
2023-03-06T14:47:02.093Z,1.1
2023-03-06T14:50:44.130Z,0.8
2023-03-06T14:53:12.381Z,1.1
2023-03-06T14:55:40.637Z,1
2023-03-06T14:58:08.899Z,1.1
2023-03-06T15:00:37.157Z,1
2023-03-06T15:03:05.414Z,1.2
2023-03-06T15:05:33.667Z,1
2023-03-06T15:08:01.926Z,1.3
2023-03-06T15:10:30.183Z,1.3
2023-03-06T15:11:44.918Z,0.9
2023-03-06T15:12:58.463Z,1
2023-03-06T15:15:26.718Z,1.5
2023-03-06T15:17:54.970Z,1.2
2023-03-06T15:22:51.484Z,1
2023-03-06T15:25:19.745Z,1.1
2023-03-06T15:27:48.003Z,1.5
2023-03-06T15:30:16.262Z,1.3
2023-03-06T15:32:44.514Z,1.4
2023-03-06T15:35:12.767Z,1.5
2023-03-06T15:36:27.499Z,1.5
2023-03-06T15:37:41.049Z,1.4
2023-03-06T15:40:09.305Z,1.1
2023-03-06T15:42:37.561Z,1.2
2023-03-06T15:45:05.817Z,1.2
2023-03-06T15:47:34.074Z,1.2
2023-03-06T15:50:02.327Z,1.3
2023-03-06T15:54:58.846Z,1.2
2023-03-06T15:57:27.099Z,1.2
2023-03-06T15:59:55.361Z,1.3
2023-03-06T16:01:10.087Z,1.4
2023-03-06T16:02:23.631Z,1.2
2023-03-06T16:04:51.897Z,1.3
2023-03-06T16:07:20.146Z,1.3
2023-03-06T16:09:48.418Z,1.4
2023-03-06T16:12:16.669Z,1.3
2023-03-06T16:14:44.919Z,1.2
2023-03-06T16:17:13.179Z,1.3
2023-03-06T16:19:41.434Z,1.6
2023-03-06T16:22:09.696Z,1.5
2023-03-06T16:25:52.681Z,1.5
2023-03-06T16:27:06.229Z,1.3
2023-03-06T16:29:34.479Z,1.2
2023-03-06T16:32:02.741Z,1.1
2023-03-06T16:34:30.994Z,1
2023-03-06T16:36:59.252Z,1.1
2023-03-06T16:39:27.511Z,1.2
2023-03-06T16:41:55.764Z,1.1
2023-03-06T16:44:24.024Z,1.1
2023-03-06T16:46:52.279Z,1.3
2023-03-06T16:49:20.537Z,1.4
2023-03-06T16:50:35.272Z,1.7
2023-03-06T16:51:48.816Z,1.6
2023-03-06T16:56:45.329Z,1.3
2023-03-06T16:59:13.587Z,1.5
2023-03-06T17:01:41.848Z,1.3
2023-03-06T17:04:10.110Z,1.2
2023-03-06T17:06:38.365Z,1.4
2023-03-06T17:09:06.625Z,1.3
2023-03-06T17:11:34.879Z,1.4
2023-03-06T17:14:03.137Z,1.3
2023-03-06T17:15:17.871Z,1.6
2023-03-06T17:16:31.415Z,1.4
2023-03-06T17:18:59.670Z,1.4
2023-03-06T17:21:27.928Z,1.2
2023-03-06T17:23:56.186Z,1.5
2023-03-06T17:28:52.698Z,1.5
2023-03-06T17:31:20.958Z,3.2
2023-03-06T17:33:49.219Z,12.6
2023-03-06T17:36:17.472Z,8.6
2023-03-06T17:38:45.725Z,8.3
2023-03-06T17:40:00.464Z,10.6
2023-03-06T17:41:14.005Z,7.1
2023-03-06T17:43:42.259Z,6.8
2023-03-06T17:46:10.521Z,5.6
2023-03-06T17:48:38.772Z,4.4
2023-03-06T17:51:07.032Z,4.1
2023-03-06T17:53:35.286Z,4.3
2023-03-06T17:56:03.547Z,4.2
2023-03-06T18:01:00.067Z,4.9
2023-03-06T18:03:28.320Z,4.8
2023-03-06T18:04:43.056Z,3.8
2023-03-06T18:05:56.597Z,3.8
2023-03-06T18:08:24.852Z,3.6
2023-03-06T18:10:53.106Z,3.6
2023-03-06T18:13:21.364Z,4.3
2023-03-06T18:15:49.628Z,5.6
2023-03-06T18:18:17.877Z,5.4
2023-03-06T18:20:46.141Z,5.2
2023-03-06T18:23:14.393Z,5.1
2023-03-06T18:25:42.650Z,5
2023-03-06T18:28:10.913Z,6
2023-03-06T18:30:39.167Z,6.6
2023-03-06T18:33:07.420Z,6.6
2023-03-06T18:35:35.680Z,5.7
2023-03-06T18:38:03.936Z,4.8
2023-03-06T18:40:32.198Z,4.8
2023-03-06T18:43:00.450Z,5.1
2023-03-06T18:45:28.708Z,5.9
2023-03-06T18:47:56.970Z,6.1
2023-03-06T18:50:25.226Z,5.5
2023-03-06T18:52:53.482Z,4.9
2023-03-06T18:54:08.229Z,5
2023-03-06T18:55:21.772Z,8
2023-03-06T18:57:50.037Z,22.3
2023-03-06T19:02:46.549Z,8.9
2023-03-06T19:05:14.799Z,14.2
2023-03-06T19:07:43.059Z,6.1
2023-03-06T19:10:11.319Z,4.5
2023-03-06T19:12:39.574Z,4.1
2023-03-06T19:15:07.831Z,3.9
2023-03-06T19:17:36.087Z,3.8
2023-03-06T19:18:50.824Z,3.4
2023-03-06T19:20:04.366Z,3.8
2023-03-06T19:22:32.622Z,4.2
2023-03-06T19:25:00.874Z,3.6
2023-03-06T19:27:29.138Z,3.5
2023-03-06T19:29:57.390Z,3.6
2023-03-06T19:34:53.908Z,3.5
2023-03-06T19:37:22.163Z,4.2
2023-03-06T19:39:50.419Z,4.3
2023-03-06T19:42:18.671Z,4
2023-03-06T19:43:33.405Z,4.3
2023-03-06T19:44:46.954Z,4.5
2023-03-06T19:47:15.210Z,5.8
2023-03-06T19:49:43.466Z,5.6
2023-03-06T19:52:11.724Z,5.9
2023-03-06T19:54:39.983Z,6.9
2023-03-06T19:57:08.241Z,5.5
2023-03-06T19:59:36.500Z,4.2
2023-03-06T20:02:04.756Z,4
2023-03-06T20:07:01.270Z,4.3
2023-03-06T20:08:16.003Z,4.1
2023-03-06T20:09:29.542Z,3.9
2023-03-06T20:11:57.801Z,3.5
2023-03-06T20:14:26.060Z,3.5
2023-03-06T20:16:54.319Z,3.4
2023-03-06T20:19:22.571Z,3.5
2023-03-06T20:24:19.087Z,3.1
2023-03-06T20:26:47.343Z,3.8
2023-03-06T20:29:15.599Z,3.4
2023-03-06T20:31:43.854Z,4.1
2023-03-06T20:32:58.590Z,3.8
2023-03-06T20:36:40.622Z,3.7
2023-03-06T20:39:08.873Z,3.2
2023-03-06T20:41:37.138Z,3.6
2023-03-06T20:44:05.386Z,3.5
2023-03-06T20:46:33.646Z,3.2
2023-03-06T20:49:01.904Z,3.3
2023-03-06T20:51:30.159Z,3
2023-03-06T20:53:58.414Z,3.4
2023-03-06T20:56:26.675Z,3.6
2023-03-06T20:57:41.412Z,4.2
2023-03-06T20:58:54.947Z,3.1
2023-03-06T21:01:23.207Z,3.6
2023-03-06T21:03:51.469Z,3.4
2023-03-06T21:08:47.982Z,3.3
2023-03-06T21:11:16.234Z,3.7
2023-03-06T21:13:44.492Z,3.4
2023-03-06T21:16:12.750Z,3.8
2023-03-06T21:18:41.004Z,3.9
2023-03-06T21:21:09.266Z,4.1
2023-03-06T21:22:23.995Z,4.7
2023-03-06T21:23:37.542Z,5
2023-03-06T21:26:05.804Z,4.1
2023-03-06T21:28:34.055Z,3.8
2023-03-06T21:31:02.316Z,3.6
2023-03-06T21:33:30.575Z,4.4
2023-03-06T21:35:58.832Z,3.8
2023-03-06T21:40:55.343Z,4.2
2023-03-06T21:43:23.602Z,4.5
2023-03-06T21:45:51.859Z,4.7
2023-03-06T21:47:06.592Z,4.4
2023-03-06T21:48:20.137Z,4.9
2023-03-06T21:50:48.389Z,4.2
2023-03-06T21:53:16.651Z,5
2023-03-06T21:55:44.908Z,4.7
2023-03-06T21:58:13.161Z,4.9
2023-03-06T22:00:41.413Z,4.9
2023-03-06T22:03:09.672Z,4.8
2023-03-06T22:05:37.936Z,5.2
2023-03-06T22:08:06.193Z,4.7
2023-03-06T22:11:49.181Z,5
2023-03-06T22:13:02.722Z,5.4
2023-03-06T22:15:30.977Z,4.5
2023-03-06T22:17:59.237Z,5.1
2023-03-06T22:20:27.494Z,4.8
2023-03-06T22:22:55.751Z,5.3
2023-03-06T22:25:24.003Z,5.3
2023-03-06T22:27:52.266Z,5.1
2023-03-06T22:30:20.525Z,5
2023-03-06T22:32:48.781Z,5.4
2023-03-06T22:35:17.039Z,4.9
2023-03-06T22:36:31.773Z,5.1
2023-03-06T22:37:45.311Z,5.1
2023-03-06T22:42:41.823Z,4.6
2023-03-06T22:45:10.083Z,5
2023-03-06T22:47:38.339Z,5.2
2023-03-06T22:50:06.599Z,5.3
2023-03-06T22:52:34.853Z,4.8
2023-03-06T22:55:03.109Z,4.6
2023-03-06T22:57:31.366Z,4.7
2023-03-06T22:59:59.625Z,5
2023-03-06T23:01:14.354Z,5
2023-03-06T23:02:27.900Z,5.4
2023-03-06T23:04:56.163Z,5.9
2023-03-06T23:07:24.420Z,5.8
2023-03-06T23:09:52.670Z,6.6
2023-03-06T23:14:49.186Z,7
2023-03-06T23:17:17.441Z,7.8
2023-03-06T23:19:45.710Z,9.6
2023-03-06T23:22:13.957Z,10.6
2023-03-06T23:24:42.215Z,11.2
2023-03-06T23:25:56.949Z,13.1
2023-03-06T23:27:10.487Z,14.6
2023-03-06T23:29:38.749Z,14.2
2023-03-06T23:32:06.999Z,14.9
2023-03-06T23:34:35.255Z,15
2023-03-06T23:37:03.521Z,15.5
2023-03-06T23:39:31.773Z,15.5
2023-03-06T23:42:00.032Z,17.4
2023-03-06T23:46:56.547Z,18.2
2023-03-06T23:49:24.804Z,17.6
2023-03-06T23:50:39.534Z,19.3
2023-03-06T23:51:53.081Z,22.4
2023-03-06T23:54:21.343Z,22.4
2023-03-06T23:56:49.594Z,22
2023-03-06T23:59:17.856Z,24.8
